F/V Attalaya Berria — FHCB — position and weather

sailwx.info

Track history (hours):
 
Tides and Currents Weather Stations Pressure Air Temp Water Temp Dewpoint Dewpoint Depression Visibility Wind Speed Wind Dir Waves Ship Positions

F/V Attalaya Berria

Last reported at 2015-Jul-06 21:34 UTC. Time now 2015-Jul-06 22:12 UTC.
Position N 43°29' W 001°37'.

Length 26 m.

Type: Fishing. MMSI: 228315000.

Date/timePositionNaut miles runAvg speedWind from/ knotsBaromVisibWave heightAir tempDewpointWater temp
2015-Jul-06 21:34N 43°29' W 001°37'3 3.3
2015-Jul-06 20:33N 43°31' W 001°34'6 6.1
2015-Jul-06 19:34N 43°28' W 001°40'7 7.3
2015-Jul-06 18:34N 43°22' W 001°47'0 0.0
2015-Jul-06 17:34N 43°22' W 001°47'0 0.0
2015-Jul-06 16:33N 43°22' W 001°47'0 0.0
2015-Jul-06 15:23N 43°22' W 001°47'0 0.0
2015-Jul-06 14:33N 43°22' W 001°47'0 0.0
2015-Jul-06 10:29N 43°22' W 001°47'0 0.0
2015-Jul-06 09:23N 43°22' W 001°47'0 0.0
2015-Jul-06 08:33N 43°22' W 001°47'0 0.0
2015-Jul-06 07:34N 43°22' W 001°47'0 0.0
2015-Jul-06 06:34N 43°22' W 001°47'0 0.0
2015-Jul-06 05:34N 43°22' W 001°47'0 0.0
2015-Jul-06 04:33N 43°22' W 001°47'1 0.6
2015-Jul-06 03:32N 43°22' W 001°47'2 2.4
2015-Jul-06 02:33N 43°24' W 001°45'6 5.6
2015-Jul-06 01:33N 43°27' W 001°38'3 2.6
2015-Jul-06 00:34N 43°29' W 001°38'3 3.3
2015-Jul-05 23:33N 43°31' W 001°34'1 0.9
2015-Jul-05 22:33N 43°30' W 001°35'2 1.6
2015-Jul-05 21:34N 43°30' W 001°36'  
2015-Jul-03 07:16N 43°22' W 001°47'5 1.3
2015-Jul-03 03:07N 43°27' W 001°43'610.2
2015-Jul-03 02:33N 43°30' W 001°37'1 1.1
2015-Jul-03 01:33N 43°30' W 001°35'0 0.5
2015-Jul-03 00:33N 43°30' W 001°36'1 1.0
2015-Jul-02 23:33N 43°29' W 001°37'1 0.7
2015-Jul-02 22:33N 43°29' W 001°36'1 1.0
2015-Jul-02 21:33N 43°30' W 001°36'1 1.5
2015-Jul-02 20:33N 43°31' W 001°34'7 7.4
2015-Jul-02 19:33N 43°26' W 001°42'  
Track history (hours):
 
Tides and Currents Weather Stations Pressure Air Temp Water Temp Dewpoint Dewpoint Depression Visibility Wind Speed Wind Dir Waves Ship Positions

F/V Attalaya Berria

Last reported at 2015-Jul-06 21:34 UTC. Time now 2015-Jul-06 22:12 UTC.
Position N 43°29' W 001°37'.

Length 26 m.

Type: Fishing. MMSI: 228315000.

Date/timePositionNaut miles runAvg speedWind from/ knotsBaromVisibWave heightAir tempDewpointWater temp
2015-Jul-06 21:34N 43°29' W 001°37'3 3.3
2015-Jul-06 20:33N 43°31' W 001°34'6 6.1
2015-Jul-06 19:34N 43°28' W 001°40'7 7.3
2015-Jul-06 18:34N 43°22' W 001°47'0 0.0
2015-Jul-06 17:34N 43°22' W 001°47'0 0.0
2015-Jul-06 16:33N 43°22' W 001°47'0 0.0
2015-Jul-06 15:23N 43°22' W 001°47'0 0.0
2015-Jul-06 14:33N 43°22' W 001°47'0 0.0
2015-Jul-06 10:29N 43°22' W 001°47'0 0.0
2015-Jul-06 09:23N 43°22' W 001°47'0 0.0
2015-Jul-06 08:33N 43°22' W 001°47'0 0.0
2015-Jul-06 07:34N 43°22' W 001°47'0 0.0
2015-Jul-06 06:34N 43°22' W 001°47'0 0.0
2015-Jul-06 05:34N 43°22' W 001°47'0 0.0
2015-Jul-06 04:33N 43°22' W 001°47'1 0.6
2015-Jul-06 03:32N 43°22' W 001°47'2 2.4
2015-Jul-06 02:33N 43°24' W 001°45'6 5.6
2015-Jul-06 01:33N 43°27' W 001°38'3 2.6
2015-Jul-06 00:34N 43°29' W 001°38'3 3.3
2015-Jul-05 23:33N 43°31' W 001°34'1 0.9
2015-Jul-05 22:33N 43°30' W 001°35'2 1.6
2015-Jul-05 21:34N 43°30' W 001°36'  
2015-Jul-03 07:16N 43°22' W 001°47'5 1.3
2015-Jul-03 03:07N 43°27' W 001°43'610.2
2015-Jul-03 02:33N 43°30' W 001°37'1 1.1
2015-Jul-03 01:33N 43°30' W 001°35'0 0.5
2015-Jul-03 00:33N 43°30' W 001°36'1 1.0
2015-Jul-02 23:33N 43°29' W 001°37'1 0.7
2015-Jul-02 22:33N 43°29' W 001°36'1 1.0
2015-Jul-02 21:33N 43°30' W 001°36'1 1.5
2015-Jul-02 20:33N 43°31' W 001°34'7 7.4
2015-Jul-02 19:33N 43°26' W 001°42'  

Dump ship's entire track history